sensor_id;sensor_type;location;lat;lon;timestamp;pressure;altitude;pressure_sealevel;temperature;humidity
28588;BME280;15787;49.662;10.162;2023-02-18T00:01:26;99831.25;;;11.11;100.00
28588;BME280;15787;49.662;10.162;2023-02-18T00:04:01;99824.44;;;11.12;100.00
28588;BME280;15787;49.662;10.162;2023-02-18T00:06:35;99833.72;;;11.05;100.00
28588;BME280;15787;49.662;10.162;2023-02-18T00:09:09;99827.25;;;11.12;100.00
28588;BME280;15787;49.662;10.162;2023-02-18T00:11:42;99833.28;;;11.07;100.00
28588;BME280;15787;49.662;10.162;2023-02-18T00:14:15;99823.72;;;11.04;100.00
28588;BME280;15787;49.662;10.162;2023-02-18T00:16:48;99834.53;;;11.02;100.00
28588;BME280;15787;49.662;10.162;2023-02-18T00:19:21;99834.97;;;11.01;100.00
28588;BME280;15787;49.662;10.162;2023-02-18T00:21:56;99842.84;;;11.09;100.00
28588;BME280;15787;49.662;10.162;2023-02-18T00:24:29;99832.47;;;11.10;100.00
28588;BME280;15787;49.662;10.162;2023-02-18T00:27:02;99835.72;;;11.01;100.00
28588;BME280;15787;49.662;10.162;2023-02-18T00:29:35;99836.84;;;11.11;100.00
28588;BME280;15787;49.662;10.162;2023-02-18T00:32:09;99834.53;;;11.02;100.00
28588;BME280;15787;49.662;10.162;2023-02-18T00:34:42;99845.00;;;10.95;100.00
28588;BME280;15787;49.662;10.162;2023-02-18T00:37:16;99830.09;;;11.08;100.00
28588;BME280;15787;49.662;10.162;2023-02-18T00:39:49;99824.56;;;11.01;100.00
28588;BME280;15787;49.662;10.162;2023-02-18T00:42:22;99837.75;;;11.01;100.00
28588;BME280;15787;49.662;10.162;2023-02-18T00:44:57;99825.34;;;11.02;100.00
28588;BME280;15787;49.662;10.162;2023-02-18T00:47:30;99830.59;;;10.96;100.00
28588;BME280;15787;49.662;10.162;2023-02-18T00:50:05;99841.06;;;10.89;100.00
28588;BME280;15787;49.662;10.162;2023-02-18T00:52:40;99834.03;;;10.73;100.00
28588;BME280;15787;49.662;10.162;2023-02-18T00:55:13;99822.03;;;10.76;100.00
28588;BME280;15787;49.662;10.162;2023-02-18T00:57:46;99823.78;;;10.60;100.00
28588;BME280;15787;49.662;10.162;2023-02-18T01:00:19;99814.97;;;10.65;100.00
28588;BME280;15787;49.662;10.162;2023-02-18T01:02:52;99821.00;;;10.60;100.00
28588;BME280;15787;49.662;10.162;2023-02-18T01:05:26;99826.97;;;10.62;100.00
28588;BME280;15787;49.662;10.162;2023-02-18T01:08:00;99819.47;;;10.52;100.00
28588;BME280;15787;49.662;10.162;2023-02-18T01:10:34;99809.94;;;10.46;100.00
28588;BME280;15787;49.662;10.162;2023-02-18T01:13:08;99800.44;;;10.40;100.00
28588;BME280;15787;49.662;10.162;2023-02-18T01:15:42;99796.31;;;10.51;100.00
28588;BME280;15787;49.662;10.162;2023-02-18T01:18:16;99798.38;;;10.44;100.00
28588;BME280;15787;49.662;10.162;2023-02-18T01:20:49;99798.38;;;10.44;100.00
28588;BME280;15787;49.662;10.162;2023-02-18T01:23:24;99791.94;;;10.50;100.00
28588;BME280;15787;49.662;10.162;2023-02-18T01:25:57;99786.69;;;10.56;100.00
28588;BME280;15787;49.662;10.162;2023-02-18T01:28:30;99785.19;;;10.48;100.00
28588;BME280;15787;49.662;10.162;2023-02-18T01:31:04;99776.88;;;10.41;100.00
28588;BME280;15787;49.662;10.162;2023-02-18T01:33:38;99776.41;;;10.49;100.00
28588;BME280;15787;49.662;10.162;2023-02-18T01:36:12;99786.03;;;10.41;100.00
28588;BME280;15787;49.662;10.162;2023-02-18T01:38:46;99778.09;;;10.40;100.00
28588;BME280;15787;49.662;10.162;2023-02-18T01:41:20;99769.22;;;10.48;100.00
28588;BME280;15787;49.662;10.162;2023-02-18T01:44:14;99759.72;;;10.42;100.00
28588;BME280;15787;49.662;10.162;2023-02-18T01:46:49;99766.44;;;10.48;100.00
28588;BME280;15787;49.662;10.162;2023-02-18T01:49:25;99766.50;;;10.41;100.00
28588;BME280;15787;49.662;10.162;2023-02-18T01:52:01;99764.88;;;10.44;100.00
28588;BME280;15787;49.662;10.162;2023-02-18T01:54:39;99760.91;;;10.41;100.00
28588;BME280;15787;49.662;10.162;2023-02-18T01:57:16;99761.28;;;10.43;100.00
28588;BME280;15787;49.662;10.162;2023-02-18T01:59:52;99758.84;;;10.49;100.00
28588;BME280;15787;49.662;10.162;2023-02-18T02:02:28;99755.59;;;10.54;100.00
28588;BME280;15787;49.662;10.162;2023-02-18T02:05:01;99755.75;;;10.40;100.00
28588;BME280;15787;49.662;10.162;2023-02-18T02:07:34;99752.09;;;10.46;100.00
28588;BME280;15787;49.662;10.162;2023-02-18T02:10:09;99750.91;;;10.47;100.00
28588;BME280;15787;49.662;10.162;2023-02-18T02:12:54;99746.88;;;10.52;100.00
28588;BME280;15787;49.662;10.162;2023-02-18T02:15:34;99746.03;;;10.55;100.00
28588;BME280;15787;49.662;10.162;2023-02-18T02:18:28;99752.09;;;10.46;100.00
28588;BME280;15787;49.662;10.162;2023-02-18T02:21:37;99746.88;;;10.48;100.00
28588;BME280;15787;49.662;10.162;2023-02-18T02:24:52;99741.31;;;10.48;100.00
28588;BME280;15787;49.662;10.162;2023-02-18T02:27:51;99734.16;;;10.47;100.00
28588;BME280;15787;49.662;10.162;2023-02-18T02:31:00;99735.97;;;10.61;100.00
28588;BME280;15787;49.662;10.162;2023-02-18T02:34:28;99744.44;;;10.54;100.00
28588;BME280;15787;49.662;10.162;2023-02-18T02:37:11;99744.06;;;10.52;100.00
28588;BME280;15787;49.662;10.162;2023-02-18T02:39:58;99729.59;;;10.60;100.00
28588;BME280;15787;49.662;10.162;2023-02-18T02:42:44;99727.69;;;10.54;100.00
28588;BME280;15787;49.662;10.162;2023-02-18T02:45:26;99723.72;;;10.51;100.00
28588;BME280;15787;49.662;10.162;2023-02-18T02:48:09;99719.22;;;10.61;100.00
28588;BME280;15787;49.662;10.162;2023-02-18T02:50:52;99730.06;;;10.55;100.00
28588;BME280;15787;49.662;10.162;2023-02-18T02:53:29;99722.91;;;10.54;100.00
28588;BME280;15787;49.662;10.162;2023-02-18T02:56:02;99727.25;;;10.55;100.00
28588;BME280;15787;49.662;10.162;2023-02-18T02:58:36;99723.75;;;10.48;100.00
28588;BME280;15787;49.662;10.162;2023-02-18T03:01:28;99718.16;;;10.48;100.00
28588;BME280;15787;49.662;10.162;2023-02-18T03:04:22;99710.75;;;10.34;100.00
28588;BME280;15787;49.662;10.162;2023-02-18T03:07:12;99711.41;;;10.45;100.00
28588;BME280;15787;49.662;10.162;2023-02-18T03:10:06;99711.13;;;10.36;100.00
28588;BME280;15787;49.662;10.162;2023-02-18T03:12:46;99708.75;;;10.35;100.00
28588;BME280;15787;49.662;10.162;2023-02-18T03:15:23;99711.50;;;10.38;100.00
28588;BME280;15787;49.662;10.162;2023-02-18T03:18:00;99705.81;;;10.45;100.00
28588;BME280;15787;49.662;10.162;2023-02-18T03:20:39;99716.31;;;10.34;100.00
28588;BME280;15787;49.662;10.162;2023-02-18T03:23:21;99704.34;;;10.34;100.00
28588;BME280;15787;49.662;10.162;2023-02-18T03:25:57;99704.72;;;10.36;100.00
28588;BME280;15787;49.662;10.162;2023-02-18T03:28:33;99711.13;;;10.36;100.00
28588;BME280;15787;49.662;10.162;2023-02-18T03:31:09;99713.03;;;10.43;100.00
28588;BME280;15787;49.662;10.162;2023-02-18T03:33:50;99713.97;;;10.29;100.00
28588;BME280;15787;49.662;10.162;2023-02-18T03:36:24;99709.16;;;10.33;100.00
28588;BME280;15787;49.662;10.162;2023-02-18T03:39:03;99712.72;;;10.34;100.00
28588;BME280;15787;49.662;10.162;2023-02-18T03:41:37;99706.34;;;10.33;100.00
28588;BME280;15787;49.662;10.162;2023-02-18T03:44:11;99700.78;;;10.30;100.00
28588;BME280;15787;49.662;10.162;2023-02-18T03:46:45;99697.97;;;10.37;100.00
28588;BME280;15787;49.662;10.162;2023-02-18T03:49:21;99693.91;;;10.41;100.00
28588;BME280;15787;49.662;10.162;2023-02-18T03:51:54;99695.97;;;10.37;100.00
28588;BME280;15787;49.662;10.162;2023-02-18T03:54:28;99686.44;;;10.31;100.00
28588;BME280;15787;49.662;10.162;2023-02-18T03:57:01;99686.00;;;10.33;100.00
28588;BME280;15787;49.662;10.162;2023-02-18T03:59:35;99695.56;;;10.35;100.00
28588;BME280;15787;49.662;10.162;2023-02-18T04:02:08;99689.56;;;10.37;100.00
28588;BME280;15787;49.662;10.162;2023-02-18T04:04:41;99686.00;;;10.36;100.00
28588;BME280;15787;49.662;10.162;2023-02-18T04:07:14;99695.47;;;10.46;100.00
28588;BME280;15787;49.662;10.162;2023-02-18T04:09:48;99692.75;;;10.39;100.00
28588;BME280;15787;49.662;10.162;2023-02-18T04:12:21;99697.00;;;10.50;100.00
28588;BME280;15787;49.662;10.162;2023-02-18T04:14:55;99693.91;;;10.41;100.00
28588;BME280;15787;49.662;10.162;2023-02-18T04:17:28;99705.81;;;10.45;100.00
28588;BME280;15787;49.662;10.162;2023-02-18T04:20:00;99701.13;;;10.35;100.00
28588;BME280;15787;49.662;10.162;2023-02-18T04:22:35;99703.56;;;10.33;100.00
28588;BME280;15787;49.662;10.162;2023-02-18T04:25:09;99700.38;;;10.35;100.00
28588;BME280;15787;49.662;10.162;2023-02-18T04:27:42;99700.41;;;10.28;100.00
28588;BME280;15787;49.662;10.162;2023-02-18T04:30:15;99700.84;;;10.26;100.00
28588;BME280;15787;49.662;10.162;2023-02-18T04:32:49;99693.28;;;10.27;100.00
28588;BME280;15787;49.662;10.162;2023-02-18T04:35:22;99696.81;;;10.31;100.00
28588;BME280;15787;49.662;10.162;2023-02-18T04:37:55;99688.84;;;10.29;100.00
28588;BME280;15787;49.662;10.162;2023-02-18T04:40:29;99693.16;;;10.37;100.00
28588;BME280;15787;49.662;10.162;2023-02-18T04:43:03;99692.03;;;10.31;100.00
28588;BME280;15787;49.662;10.162;2023-02-18T04:45:35;99693.28;;;10.27;100.00
28588;BME280;15787;49.662;10.162;2023-02-18T04:48:08;99688.06;;;10.29;100.00
28588;BME280;15787;49.662;10.162;2023-02-18T04:50:42;99687.97;;;10.36;100.00
28588;BME280;15787;49.662;10.162;2023-02-18T04:53:15;99693.19;;;10.34;100.00
28588;BME280;15787;49.662;10.162;2023-02-18T04:55:50;99684.91;;;10.27;100.00
28588;BME280;15787;49.662;10.162;2023-02-18T04:58:23;99690.53;;;10.20;100.00
28588;BME280;15787;49.662;10.162;2023-02-18T05:00:58;99690.44;;;10.30;100.00
28588;BME280;15787;49.662;10.162;2023-02-18T05:03:31;99679.31;;;10.27;100.00
28588;BME280;15787;49.662;10.162;2023-02-18T05:06:05;99683.38;;;10.19;100.00
28588;BME280;15787;49.662;10.162;2023-02-18T05:08:38;99676.53;;;10.27;100.00
28588;BME280;15787;49.662;10.162;2023-02-18T05:11:12;99681.66;;;10.32;100.00
28588;BME280;15787;49.662;10.162;2023-02-18T05:13:45;99684.41;;;10.35;100.00
28588;BME280;15787;49.662;10.162;2023-02-18T05:16:18;99672.22;;;10.19;100.00
28588;BME280;15787;49.662;10.162;2023-02-18T05:18:51;99667.81;;;10.18;100.00
28588;BME280;15787;49.662;10.162;2023-02-18T05:21:24;99663.00;;;10.22;100.00
28588;BME280;15787;49.662;10.162;2023-02-18T05:23:57;99659.81;;;10.20;100.00
28588;BME280;15787;49.662;10.162;2023-02-18T05:26:31;99652.69;;;10.15;100.00
28588;BME280;15787;49.662;10.162;2023-02-18T05:29:04;99658.72;;;10.13;100.00
28588;BME280;15787;49.662;10.162;2023-02-18T05:31:38;99654.97;;;10.27;100.00
28588;BME280;15787;49.662;10.162;2023-02-18T05:34:11;99659.78;;;10.27;100.00
28588;BME280;15787;49.662;10.162;2023-02-18T05:36:44;99645.47;;;10.21;100.00
28588;BME280;15787;49.662;10.162;2023-02-18T05:39:17;99651.88;;;10.18;100.00
28588;BME280;15787;49.662;10.162;2023-02-18T05:41:51;99651.06;;;10.21;100.00
28588;BME280;15787;49.662;10.162;2023-02-18T05:44:24;99651.50;;;10.16;100.00
28588;BME280;15787;49.662;10.162;2023-02-18T05:47:05;99657.44;;;10.22;100.00
28588;BME280;15787;49.662;10.162;2023-02-18T05:49:42;99661.78;;;10.26;100.00
28588;BME280;15787;49.662;10.162;2023-02-18T05:52:16;99666.19;;;10.20;100.00
28588;BME280;15787;49.662;10.162;2023-02-18T05:54:49;99670.25;;;10.15;100.00
28588;BME280;15787;49.662;10.162;2023-02-18T05:57:23;99653.53;;;10.08;100.00
28588;BME280;15787;49.662;10.162;2023-02-18T05:59:57;99654.72;;;10.11;100.00
28588;BME280;15787;49.662;10.162;2023-02-18T06:02:31;99656.25;;;10.19;100.00
28588;BME280;15787;49.662;10.162;2023-02-18T06:05:04;99645.91;;;10.16;100.00
28588;BME280;15787;49.662;10.162;2023-02-18T06:07:37;99651.53;;;10.12;100.00
28588;BME280;15787;49.662;10.162;2023-02-18T06:10:11;99646.75;;;10.13;100.00
28588;BME280;15787;49.662;10.162;2023-02-18T06:12:45;99649.91;;;10.15;100.00
28588;BME280;15787;49.662;10.162;2023-02-18T06:15:19;99643.56;;;10.11;100.00
28588;BME280;15787;49.662;10.162;2023-02-18T06:17:52;99642.41;;;10.05;100.00
28588;BME280;15787;49.662;10.162;2023-02-18T06:20:25;99629.63;;;10.07;100.00
28588;BME280;15787;49.662;10.162;2023-02-18T06:22:58;99628.06;;;10.06;100.00
28588;BME280;15787;49.662;10.162;2023-02-18T06:25:31;99631.59;;;10.10;100.00
28588;BME280;15787;49.662;10.162;2023-02-18T06:28:05;99630.44;;;10.04;100.00
28588;BME280;15787;49.662;10.162;2023-02-18T06:30:38;99632.41;;;10.07;100.00
28588;BME280;15787;49.662;10.162;2023-02-18T06:33:11;99626.81;;;10.11;100.00
28588;BME280;15787;49.662;10.162;2023-02-18T06:35:52;99631.63;;;10.07;100.00
28588;BME280;15787;49.662;10.162;2023-02-18T06:38:25;99639.91;;;10.18;100.00
28588;BME280;15787;49.662;10.162;2023-02-18T06:40:58;99645.50;;;10.18;100.00
28588;BME280;15787;49.662;10.162;2023-02-18T06:43:33;99629.53;;;10.22;100.00
28588;BME280;15787;49.662;10.162;2023-02-18T06:46:06;99640.28;;;10.20;100.00
28588;BME280;15787;49.662;10.162;2023-02-18T06:48:40;99638.28;;;10.24;100.00
28588;BME280;15787;49.662;10.162;2023-02-18T06:51:13;99644.25;;;10.22;100.00
28588;BME280;15787;49.662;10.162;2023-02-18T06:53:46;99631.78;;;10.34;100.00
28588;BME280;15787;49.662;10.162;2023-02-18T06:56:20;99631.06;;;10.26;100.00
28588;BME280;15787;49.662;10.162;2023-02-18T06:58:54;99639.88;;;10.21;100.00
28588;BME280;15787;49.662;10.162;2023-02-18T07:01:27;99639.88;;;10.21;100.00
28588;BME280;15787;49.662;10.162;2023-02-18T07:04:00;99648.97;;;10.29;100.00
28588;BME280;15787;49.662;10.162;2023-02-18T07:06:33;99637.72;;;10.36;100.00
28588;BME280;15787;49.662;10.162;2023-02-18T07:09:06;99649.25;;;10.41;100.00
28588;BME280;15787;49.662;10.162;2023-02-18T07:11:39;99646.81;;;10.43;100.00
28588;BME280;15787;49.662;10.162;2023-02-18T07:14:14;99642.78;;;10.48;100.00
28588;BME280;15787;49.662;10.162;2023-02-18T07:16:48;99657.97;;;10.47;100.00
28588;BME280;15787;49.662;10.162;2023-02-18T07:19:21;99661.47;;;10.54;100.00
28588;BME280;15787;49.662;10.162;2023-02-18T07:21:54;99666.34;;;10.47;100.00
28588;BME280;15787;49.662;10.162;2023-02-18T07:24:28;99657.88;;;10.54;100.00
28588;BME280;15787;49.662;10.162;2023-02-18T07:27:01;99664.28;;;10.51;100.00
28588;BME280;15787;49.662;10.162;2023-02-18T07:29:35;99668.22;;;10.57;100.00
28588;BME280;15787;49.662;10.162;2023-02-18T07:32:10;99670.22;;;10.56;100.00
28588;BME280;15787;49.662;10.162;2023-02-18T07:34:44;99665.09;;;10.51;100.00
28588;BME280;15787;49.662;10.162;2023-02-18T07:37:17;99667.41;;;10.60;100.00
28588;BME280;15787;49.662;10.162;2023-02-18T07:39:50;99657.09;;;10.53;100.00
28588;BME280;15787;49.662;10.162;2023-02-18T07:42:23;99669.03;;;10.57;100.00
28588;BME280;15787;49.662;10.162;2023-02-18T07:44:57;99668.97;;;10.61;100.00
28588;BME280;15787;49.662;10.162;2023-02-18T07:47:30;99653.09;;;10.54;100.00
28588;BME280;15787;49.662;10.162;2023-02-18T07:50:04;99659.75;;;10.64;100.00
28588;BME280;15787;49.662;10.162;2023-02-18T07:52:37;99651.81;;;10.62;100.00
28588;BME280;15787;49.662;10.162;2023-02-18T07:55:10;99649.03;;;10.59;100.00
28588;BME280;15787;49.662;10.162;2023-02-18T07:57:43;99659.38;;;10.62;100.00
28588;BME280;15787;49.662;10.162;2023-02-18T08:00:32;99653.75;;;10.65;100.00
28588;BME280;15787;49.662;10.162;2023-02-18T08:03:05;99646.13;;;10.69;100.00
28588;BME280;15787;49.662;10.162;2023-02-18T08:05:38;99652.97;;;10.65;100.00
28588;BME280;15787;49.662;10.162;2023-02-18T08:08:12;99642.81;;;10.78;100.00
28588;BME280;15787;49.662;10.162;2023-02-18T08:10:45;99638.34;;;10.84;100.00
28588;BME280;15787;49.662;10.162;2023-02-18T08:13:18;99641.88;;;10.88;100.00
28588;BME280;15787;49.662;10.162;2023-02-18T08:15:55;99633.94;;;10.87;100.00
28588;BME280;15787;49.662;10.162;2023-02-18T08:18:28;99643.84;;;10.91;100.00
28588;BME280;15787;49.662;10.162;2023-02-18T08:21:02;99642.03;;;11.08;100.00
28588;BME280;15787;49.662;10.162;2023-02-18T08:23:36;99651.06;;;11.19;100.00
28588;BME280;15787;49.662;10.162;2023-02-18T08:26:09;99632.34;;;11.16;100.00
28588;BME280;15787;49.662;10.162;2023-02-18T08:28:46;99647.03;;;11.23;100.00
28588;BME280;15787;49.662;10.162;2023-02-18T08:31:23;99642.13;;;11.31;100.00
28588;BME280;15787;49.662;10.162;2023-02-18T08:33:58;99641.16;;;11.41;100.00
28588;BME280;15787;49.662;10.162;2023-02-18T08:36:31;99643.97;;;11.41;100.00
28588;BME280;15787;49.662;10.162;2023-02-18T08:39:04;99638.97;;;11.52;100.00
28588;BME280;15787;49.662;10.162;2023-02-18T08:41:37;99658.63;;;11.49;100.00
28588;BME280;15787;49.662;10.162;2023-02-18T08:44:10;99628.28;;;11.47;100.00
28588;BME280;15787;49.662;10.162;2023-02-18T08:46:45;99622.69;;;11.47;100.00
28588;BME280;15787;49.662;10.162;2023-02-18T08:49:19;99617.84;;;11.51;100.00
28588;BME280;15787;49.662;10.162;2023-02-18T08:51:54;99605.56;;;11.41;100.00
28588;BME280;15787;49.662;10.162;2023-02-18T08:54:27;99599.16;;;11.44;100.00
28588;BME280;15787;49.662;10.162;2023-02-18T08:57:00;99605.19;;;11.43;100.00
28588;BME280;15787;49.662;10.162;2023-02-18T08:59:33;99603.06;;;11.51;100.00
28588;BME280;15787;49.662;10.162;2023-02-18T09:02:08;99594.22;;;11.52;100.00
28588;BME280;15787;49.662;10.162;2023-02-18T09:04:42;99600.63;;;11.53;100.00
28588;BME280;15787;49.662;10.162;2023-02-18T09:07:15;99587.00;;;11.55;100.00
28588;BME280;15787;49.662;10.162;2023-02-18T09:09:48;99604.94;;;11.57;100.00
28588;BME280;15787;49.662;10.162;2023-02-18T09:12:21;99607.81;;;11.54;100.00
28588;BME280;15787;49.662;10.162;2023-02-18T09:14:54;99608.66;;;11.51;100.00
28588;BME280;15787;49.662;10.162;2023-02-18T09:17:29;99605.00;;;11.54;100.00
28588;BME280;15787;49.662;10.162;2023-02-18T09:20:03;99609.00;;;11.53;100.00
28588;BME280;15787;49.662;10.162;2023-02-18T09:22:36;99618.19;;;11.53;100.00
28588;BME280;15787;49.662;10.162;2023-02-18T09:25:09;99600.94;;;11.58;100.00
28588;BME280;15787;49.662;10.162;2023-02-18T09:27:42;99613.16;;;11.68;100.00
28588;BME280;15787;49.662;10.162;2023-02-18T09:30:15;99614.88;;;11.85;100.00
28588;BME280;15787;49.662;10.162;2023-02-18T09:32:49;99619.22;;;11.89;100.00
28588;BME280;15787;49.662;10.162;2023-02-18T09:35:22;99627.66;;;12.09;100.00
28588;BME280;15787;49.662;10.162;2023-02-18T09:37:55;99628.38;;;12.13;100.00
28588;BME280;15787;49.662;10.162;2023-02-18T09:40:31;99611.53;;;12.17;100.00
28588;BME280;15787;49.662;10.162;2023-02-18T09:43:05;99611.50;;;12.40;100.00
28588;BME280;15787;49.662;10.162;2023-02-18T09:45:38;99595.47;;;12.40;100.00
28588;BME280;15787;49.662;10.162;2023-02-18T09:48:13;99605.44;;;12.41;100.00
28588;BME280;15787;49.662;10.162;2023-02-18T09:50:50;99611.84;;;12.42;100.00
28588;BME280;15787;49.662;10.162;2023-02-18T09:53:24;99609.34;;;12.47;100.00
28588;BME280;15787;49.662;10.162;2023-02-18T09:55:59;99610.47;;;12.69;100.00
28588;BME280;15787;49.662;10.162;2023-02-18T09:58:33;99620.69;;;12.60;100.00
28588;BME280;15787;49.662;10.162;2023-02-18T10:01:12;99607.47;;;12.80;100.00
28588;BME280;15787;49.662;10.162;2023-02-18T10:03:48;99616.44;;;12.72;100.00
28588;BME280;15787;49.662;10.162;2023-02-18T10:06:25;99618.97;;;12.66;100.00
28588;BME280;15787;49.662;10.162;2023-02-18T10:09:01;99606.31;;;12.58;100.00
28588;BME280;15787;49.662;10.162;2023-02-18T10:11:39;99603.94;;;12.56;99.61
28588;BME280;15787;49.662;10.162;2023-02-18T10:14:14;99607.47;;;12.60;99.52
28588;BME280;15787;49.662;10.162;2023-02-18T10:16:48;99607.91;;;12.39;98.95
28588;BME280;15787;49.662;10.162;2023-02-18T10:19:29;99597.41;;;12.43;99.76
28588;BME280;15787;49.662;10.162;2023-02-18T10:22:06;99600.78;;;12.54;100.00
28588;BME280;15787;49.662;10.162;2023-02-18T10:24:43;99589.88;;;12.60;100.00
28588;BME280;15787;49.662;10.162;2023-02-18T10:27:23;99589.84;;;12.80;99.73
28588;BME280;15787;49.662;10.162;2023-02-18T10:30:00;99590.88;;;12.69;99.25
28588;BME280;15787;49.662;10.162;2023-02-18T10:32:37;99578.50;;;12.67;98.94
28588;BME280;15787;49.662;10.162;2023-02-18T10:35:18;99583.09;;;12.77;98.71
28588;BME280;15787;49.662;10.162;2023-02-18T10:38:02;99578.78;;;12.73;98.00
28588;BME280;15787;49.662;10.162;2023-02-18T10:40:48;99589.31;;;12.68;98.34
28588;BME280;15787;49.662;10.162;2023-02-18T10:43:29;99578.16;;;12.65;97.76
28588;BME280;15787;49.662;10.162;2023-02-18T10:46:12;99571.97;;;12.74;97.46
28588;BME280;15787;49.662;10.162;2023-02-18T10:48:59;99573.75;;;12.64;98.35
28588;BME280;15787;49.662;10.162;2023-02-18T10:51:36;99583.91;;;12.58;98.22
28588;BME280;15787;49.662;10.162;2023-02-18T10:54:13;99573.75;;;12.64;97.64
28588;BME280;15787;49.662;10.162;2023-02-18T10:56:47;99583.03;;;12.61;97.36
28588;BME280;15787;49.662;10.162;2023-02-18T10:59:22;99580.16;;;12.64;97.30
28588;BME280;15787;49.662;10.162;2023-02-18T11:01:58;99579.53;;;12.57;97.09
28588;BME280;15787;49.662;10.162;2023-02-18T11:04:34;99577.94;;;12.56;97.80
28588;BME280;15787;49.662;10.162;2023-02-18T11:07:13;99565.81;;;12.62;96.96
28588;BME280;15787;49.662;10.162;2023-02-18T11:09:48;99562.06;;;12.49;97.23
28588;BME280;15787;49.662;10.162;2023-02-18T11:12:24;99563.88;;;12.59;96.97
28588;BME280;15787;49.662;10.162;2023-02-18T11:15:14;99552.31;;;12.57;96.80
28588;BME280;15787;49.662;10.162;2023-02-18T11:17:48;99544.31;;;12.56;96.74
28588;BME280;15787;49.662;10.162;2023-02-18T11:20:28;99533.22;;;12.52;97.32
28588;BME280;15787;49.662;10.162;2023-02-18T11:23:18;99529.03;;;12.60;96.77
28588;BME280;15787;49.662;10.162;2023-02-18T11:25:55;99528.66;;;12.58;96.57
28588;BME280;15787;49.662;10.162;2023-02-18T11:28:36;99525.59;;;12.53;96.76
28588;BME280;15787;49.662;10.162;2023-02-18T11:31:19;99523.72;;;12.46;96.92
28588;BME280;15787;49.662;10.162;2023-02-18T11:33:56;99517.97;;;12.53;97.59
28588;BME280;15787;49.662;10.162;2023-02-18T11:36:32;99529.81;;;12.41;98.04
28588;BME280;15787;49.662;10.162;2023-02-18T11:39:17;99520.84;;;12.50;97.85
28588;BME280;15787;49.662;10.162;2023-02-18T11:41:54;99524.06;;;12.48;97.15
28588;BME280;15787;49.662;10.162;2023-02-18T11:44:31;99520.25;;;12.58;96.73
28588;BME280;15787;49.662;10.162;2023-02-18T11:47:08;99515.22;;;12.69;95.88
28588;BME280;15787;49.662;10.162;2023-02-18T11:50:13;99520.50;;;12.84;94.75
28588;BME280;15787;49.662;10.162;2023-02-18T11:52:48;99506.75;;;12.89;92.69
28588;BME280;15787;49.662;10.162;2023-02-18T11:55:23;99507.28;;;12.84;91.81
28588;BME280;15787;49.662;10.162;2023-02-18T11:57:59;99513.38;;;12.79;90.60
28588;BME280;15787;49.662;10.162;2023-02-18T12:00:38;99512.25;;;12.77;89.78
28588;BME280;15787;49.662;10.162;2023-02-18T12:03:17;99508.47;;;12.67;88.11
28588;BME280;15787;49.662;10.162;2023-02-18T12:05:56;99506.75;;;12.73;87.02
28588;BME280;15787;49.662;10.162;2023-02-18T12:08:36;99504.81;;;12.70;85.95
28588;BME280;15787;49.662;10.162;2023-02-18T12:11:26;99498.75;;;12.72;85.56
28588;BME280;15787;49.662;10.162;2023-02-18T12:14:00;99508.22;;;12.78;85.80
28588;BME280;15787;49.662;10.162;2023-02-18T12:16:38;99503.06;;;12.76;85.39
28588;BME280;15787;49.662;10.162;2023-02-18T12:19:33;99507.38;;;12.81;84.92
28588;BME280;15787;49.662;10.162;2023-02-18T12:22:15;99510.69;;;12.76;84.50
28588;BME280;15787;49.662;10.162;2023-02-18T12:25:03;99515.78;;;12.81;83.86
28588;BME280;15787;49.662;10.162;2023-02-18T12:27:49;99493.53;;;12.74;82.80
28588;BME280;15787;49.662;10.162;2023-02-18T12:30:36;99508.81;;;12.69;82.89
28588;BME280;15787;49.662;10.162;2023-02-18T12:33:20;99492.28;;;12.75;81.91
28588;BME280;15787;49.662;10.162;2023-02-18T12:36:06;99492.94;;;12.98;81.63
28588;BME280;15787;49.662;10.162;2023-02-18T12:38:54;99493.47;;;13.09;81.31
28588;BME280;15787;49.662;10.162;2023-02-18T12:41:39;99493.22;;;13.20;80.37
28588;BME280;15787;49.662;10.162;2023-02-18T12:44:31;99483.06;;;13.26;80.29
28588;BME280;15787;49.662;10.162;2023-02-18T12:47:29;99469.19;;;13.51;80.79
28588;BME280;15787;49.662;10.162;2023-02-18T12:50:24;99452.97;;;13.43;79.29
28588;BME280;15787;49.662;10.162;2023-02-18T12:53:17;99464.56;;;13.45;79.06
28588;BME280;15787;49.662;10.162;2023-02-18T12:56:05;99458.16;;;13.44;79.26
28588;BME280;15787;49.662;10.162;2023-02-18T12:58:49;99474.75;;;13.39;79.82
28588;BME280;15787;49.662;10.162;2023-02-18T13:01:58;99469.13;;;13.39;79.19
28588;BME280;15787;49.662;10.162;2023-02-18T13:04:45;99468.44;;;13.35;79.19
28588;BME280;15787;49.662;10.162;2023-02-18T13:07:41;99466.84;;;13.34;79.35
28588;BME280;15787;49.662;10.162;2023-02-18T13:10:27;99477.19;;;13.20;79.41
28588;BME280;15787;49.662;10.162;2023-02-18T13:13:15;99465.19;;;13.20;80.39
28588;BME280;15787;49.662;10.162;2023-02-18T13:16:17;99460.28;;;13.08;79.88
28588;BME280;15787;49.662;10.162;2023-02-18T13:19:02;99476.25;;;13.11;80.76
28588;BME280;15787;49.662;10.162;2023-02-18T13:21:41;99455.81;;;13.10;80.13
28588;BME280;15787;49.662;10.162;2023-02-18T13:24:24;99473.78;;;13.13;79.94
28588;BME280;15787;49.662;10.162;2023-02-18T13:27:05;99471.66;;;13.17;79.05
28588;BME280;15787;49.662;10.162;2023-02-18T13:29:47;99460.56;;;13.13;78.45
28588;BME280;15787;49.662;10.162;2023-02-18T13:32:27;99469.94;;;13.23;78.92
28588;BME280;15787;49.662;10.162;2023-02-18T13:35:08;99468.78;;;13.37;79.07